Aviation Digital Data Service (ADDS)

Output produced by METARs form (2145 UTC 21 September 2018)
found at http://aviationweather.gov/metar/data/
 
KCGZ 212056Z AUTO 25006KT 10SM CLR 34/17 A2994 RMK AO2 SLP124 6//// T03390167 58022 PNO $